Aeroporto :
LOGIN :

Iscrizione | Disclaimer

   EN    FR    IT 

 










Sommario :    VFR   VFR Marginale   IFR   IFR Intensivo   IFR Molto Intensivo
Visibilità : 
Base nubi : 
>= 8 km
>= 3000ft
5 / 8 km
1000 / 3000 ft
1500m / 5 km
500 / 1000 ft
800 / 1500m
200 / 500 ft
< 800m
< 200 ft
Simboli :   Temporali  Nebbia  Neve Forte  Precipitazioni Forti  Vento > 20 kt
SIGMETs :   Varie  Temporali  Ghiacco  Turbolenza  Onda orograficha  Ceneri Vulcaniche






- Altitudine del aeroporto : 425 ft
- Codice IATA : DTM


EDLW - Dortmund

ULTIMO METAR :
  • 251250Z 30005KT 260V340 9999 FEW014 03/M00 Q1004

METARs OBSOLETI :
  • 251220Z 31005KT 9999 FEW016 03/M01 Q1004
  • 251150Z 31003KT 280V350 CAVOK 02/M01 Q1004
  • 251120Z VRB02KT CAVOK 02/M02 Q1004
  • 251050Z 00000KT CAVOK 01/M02 Q1003

TAF TAF EDLW
Valido dal 25 a 12 ore il 26 a 12 ore UTC


251100Z 2512/2612 VRB02KT 9999 FEW040
BECMG 2516/2520 23013KT
BECMG 2523/2601 BKN013
TEMPO 2523/2602 2500 SN BKN005
TEMPO 2601/2606 24015G30KT
PROB30
TEMPO 2604/2609 RASN BKN003
BECMG 2605/2608 28008KT 4000 BR BKN007



MetMap, La meteo Aeronautica in un colpo d'occhio ! - Copyright ORBIFLY Dicembre 2007 - Disclaimer

ORBIFLY MET'MAP TEAM :

Programmazione e sviluppo : Alexandra Zaïnal
Concezione : Baudouin d'Aumeries
Aiuto per la programmazione : Marc-Olivier Méhu
Supporto tecnico e logistico : Manuel Goepfert
Aiuto per la traduzione : Arnaldo La Scala

Contatto : metmap@orbifly.com




FONTI E CREDITI :

   NOAA